Aviation Digital Data Service (ADDS)

Output produced by METARs form (0950 UTC 21 October 2019)
found at http://aviationweather.gov/metar/data/
 
LSZH 210920Z VRB01KT 9999 FEW005 SCT035 BKN050 14/12 Q1019 NOSIG
TAF LSZH 210825Z 2109/2215 28005KT 8000 FEW002 SCT050 TX15/2114Z TN10/2205Z
TX17/2214Z 
     TEMPO 2115/2121 RA 
     BECMG 2118/2121 4000 BR BKN006 
     BECMG 2207/2210 9999 BKN014 
     BECMG 2210/2212 05005KT SCT020
       
LFSB 210930Z 17004KT 9999 BKN040 14/13 Q1020 NOSIG
LFSB 210900Z 18004KT 9999 BKN043 14/13 Q1019 NOSIG
TAF LFSB 210500Z 2106/2206 VRB04KT 9999 -RA FEW006 BKN030 BKN090 
     PROB30 
     TEMPO 2106/2109 4000 BKN005 
     BECMG 2109/2111 29006KT NSW 
     PROB40 
     TEMPO 2112/2115 BKN013 
     TEMPO 2115/2124 -RA 
     BECMG 2200/2203 4000 BR BKN002 
     PROB40 2203/2206 0400 FG VV///
       
LSZG 210920Z 00000KT 9999 FEW005 SCT016 BKN034 13/13 Q1019 NOSIG
TAF LSZG 210825Z 2109/2118 VRB02KT 9999 FEW005 SCT020 BKN030 
     TEMPO 2113/2118 RA
       
LSZB 210920Z VRB01KT 9999 FEW008 BKN023 13/13 Q1019 NOSIG
TAF LSZB 210825Z 2109/2118 VRB03KT 9999 FEW005 SCT020 OVC035 
     TEMPO 2112/2118 RA 
     PROB40 
     TEMPO 2112/2118 4000
       
LSGG 210920Z VRB03KT 8000 -RA FEW003 SCT040 BKN085 14/14 Q1019 TEMPO 4500 RA
TAF LSGG 210825Z 2109/2215 VRB03KT 9999 FEW010 BKN040 TX15/2115Z TN11/2205Z
TX16/2215Z 
     PROB40 
     TEMPO 2112/2204 RA 
     PROB30 
     TEMPO 2202/2206 1500 BR 
     BECMG 2209/2211 06007KT
       
LSZR 210920Z 29006KT 9999 SCT015 BKN120 14/13 Q1018 NOSIG RMK G
TAF LSZR 210825Z 2109/2118 VRB03KT 9999 FEW025 
     BECMG 2115/2118 BKN014
       
LSGS 210920Z 26003KT 200V300 9999 FEW010 SCT070 BKN150 15/14 Q1019
TAF LSGS 210825Z 2109/2118 VRB03KT 9999 FEW020 SCT070 BKN120 
     PROB40 
     TEMPO 2113/2118 RA FEW012 SCT030 BKN050
       
LSZA 210920Z VRB03KT 6000 RA FEW012 SCT027 BKN033 16/16 Q1022 NOSIG
TAF LSZA 210825Z 2109/2118 VRB03KT 9999 FEW015 SCT030 BKN040 
     TEMPO 2109/2118 SHRA SCT040TCU 
     PROB40 
     TEMPO 2111/2115 4500 TSRA SCT030CB
       
EDNY 210920Z VRB02KT 9999 FEW018 15/13 Q1018
TAF EDNY 210500Z 2106/2206 VRB03KT 9999 SCT025 
     TEMPO 2109/2116 29005KT 
     PROB30 
     TEMPO 2203/2206 2000 BCFG
       
EDDS 210920Z 12003KT 060V160 9999 FEW002 16/14 Q1018 NOSIG
TAF EDDS 210500Z 2106/2206 VRB03KT CAVOK 
     BECMG 2108/2110 26006KT 
     BECMG 2117/2119 VRB03KT 
     PROB30 
     TEMPO 2118/2122 RA 
     TEMPO 2122/2206 BKN007 
     PROB30 
     TEMPO 2203/2206 0900 FG BKN001
       
LOWI 210920Z 28010KT 9999 SCT060 BKN100 17/11 Q1020 WS R26 TEMPO FM1100 12015G30KT
TAF LOWI 210515Z 2106/2206 27007KT 9999 FEW060 BKN100 TX22/2114Z TN12/2206Z 
     PROB30 
     TEMPO 2106/2109 10015G25KT 
     BECMG 2108/2110 08012G25KT 
     TEMPO 2109/2119 13020G35KT 
     BECMG 2117/2119 27008KT 
     TEMPO 2119/2201 10015G25KT
       
EDDM 210920Z VRB02KT CAVOK 13/11 Q1019 NOSIG
TAF EDDM 210500Z 2106/2212 VRB03KT CAVOK 
     TEMPO 2108/2116 32005KT 
     BECMG 2200/2203 1500 BCFG 
     PROB30 
     TEMPO 2204/2207 0700 FG VV001 
     BECMG 2206/2208 3000 BR BKN003 
     BECMG 2208/2210 04005KT 8000 SCT008
       
LFMD 210930Z AUTO VRB02KT 9999 FEW035 SCT045 BKN054 18/17 Q1020 TEMPO 4000 RA
LFMD 210900Z AUTO VRB03KT 9999 FEW036 BKN049 OVC088 18/17 Q1020 TEMPO RA
TAF LFMD 210800Z 2109/2209 02006KT 9999 SCT040 OVC070 
     TEMPO 2109/2113 4000 RA 
     BECMG 2120/2123 08010KT BKN014 
     BECMG 2203/2205 FEW020 
     TEMPO 2207/2209 08015G25KT
       
LFLL 210930Z 11003KT 9999 BKN036 15/12 Q1019 NOSIG
LFLL 210900Z 07004KT 9999 BKN033 14/12 Q1019 NOSIG
TAF LFLL 210500Z 2106/2212 VRB02KT 9999 SCT013 BKN030 
     BECMG 2107/2109 34004KT 
     TEMPO 2112/2201 RA BKN013 
     BECMG 2201/2203 6000 BKN008 
     BECMG 2210/2212 9999 SCT020
       
LIMC 210920Z 31004KT 280V090 3500 RA BR SCT005 OVC020 16/16 Q1022 NOSIG
TAF LIMC 210500Z 2106/2212 12012KT 8000 SCT020 BKN040 
     TEMPO 2106/2203 13015G25KT 2500 TSRA BKN010CB OVC025 
     TEMPO 2203/2208 4000 RA
       
LFPB 210930Z AUTO 23012KT 9999 OVC013 12/09 Q1016 TEMPO 23015G25KT BECMG BKN018
LFPB 210900Z AUTO 23009KT 200V260 9999 OVC013 11/09 Q1016 TEMPO 23015G25KT BECMG BKN018
TAF AMD LFPB 210744Z 2107/2206 23012KT 9999 BKN008 
     PROB30 
     TEMPO 2107/2108 3000 -DZ 
     BECMG 2107/2109 BKN014 
     PROB30 
     TEMPO 2109/2112 23015G25KT 
     BECMG 2110/2112 BKN018 
     BECMG 2120/2122 VRB03KT 3000 BR BKN006 
     BECMG 2200/2202 0800 FG OVC004 
     BECMG 2202/2204 0500 FG VV///
       
LIPZ 210920Z 06006KT 9999 BKN009 SCT014 20/18 Q1022 NOSIG
TAF LIPZ 210500Z 2106/2212 04007KT 9999 BKN020 BKN040 
     TEMPO 2106/2108 1200 BR BKN001 
     BECMG 2108/2110 14010KT 
     BECMG 2116/2118 VRB05KT 
     BECMG 2118/2120 3000 BR 
     BECMG 2121/2123 0300 FG BKN001 
     BECMG 2208/2210 7000 NSC